Time;durP1;ratioP1;P1;durP2;ratioP2;P2;SDS_P1;SDS_P2;PMS_P1;PMS_P2;Temp;Humidity;BMP_temperature;BMP_pressure;BME280_temperature;BME280_humidity;BME280_pressure;Samples;Min_cycle;Max_cycle;Signal;HPM_P1;HPM_P2
2021/03/02 00:00:00;;;;;;;83.95;25.55;;;;;;;;;;5035103;28;20037;-77
2021/03/02 00:02:27;;;;;;;84.07;25.13;;;;;;;;;;5032592;28;20056;-78
2021/03/02 00:04:54;;;;;;;78.13;24.42;;;;;;;;;;5045418;28;20724;-78
2021/03/02 00:07:21;;;;;;;81.03;24.45;;;;;;;;;;5028684;28;20045;-77
2021/03/02 00:09:48;;;;;;;85.72;25.08;;;;;;;;;;5035609;28;20045;-78
2021/03/02 00:12:25;;;;;;;78.70;26.63;;;;;;;;;;5034935;28;20087;-78
2021/03/02 00:14:52;;;;;;;76.53;21.88;;;;;;;;;;5033219;28;20091;-77
2021/03/02 00:17:34;;;;;;;53.40;19.27;;;;;;;;;;5050414;28;20045;-78
2021/03/02 00:20:00;;;;;;;50.10;17.98;;;;;;;;;;5030982;28;20057;-79
2021/03/02 00:22:31;;;;;;;51.65;17.55;;;;;;;;;;5049485;28;20045;-78
2021/03/02 00:24:58;;;;;;;58.10;19.52;;;;;;;;;;5051037;28;20083;-78
2021/03/02 00:27:25;;;;;;;69.30;20.25;;;;;;;;;;5033498;28;20130;-78
2021/03/02 00:29:52;;;;;;;67.82;20.52;;;;;;;;;;5034184;28;20053;-78
2021/03/02 00:32:20;;;;;;;71.57;24.13;;;;;;;;;;5050285;28;20052;-78
2021/03/02 00:34:47;;;;;;;82.18;24.50;;;;;;;;;;5051263;28;20052;-78
2021/03/02 00:37:14;;;;;;;78.13;26.52;;;;;;;;;;5050865;28;20041;-78
2021/03/02 00:39:41;;;;;;;90.53;26.02;;;;;;;;;;5051264;28;20131;-78
2021/03/02 00:42:08;;;;;;;81.65;24.38;;;;;;;;;;5032632;28;20048;-78
2021/03/02 00:44:35;;;;;;;79.65;24.00;;;;;;;;;;5032913;28;20167;-78
2021/03/02 00:47:02;;;;;;;86.65;25.40;;;;;;;;;;5051247;28;20085;-78
2021/03/02 00:49:29;;;;;;;86.05;24.77;;;;;;;;;;5033150;28;20049;-78
2021/03/02 00:51:56;;;;;;;79.68;25.85;;;;;;;;;;5049210;28;20057;-78
2021/03/02 00:54:22;;;;;;;55.78;20.30;;;;;;;;;;5030129;28;20758;-78
2021/03/02 00:56:49;;;;;;;60.72;20.55;;;;;;;;;;5032901;28;20163;-78
2021/03/02 00:59:16;;;;;;;81.13;23.58;;;;;;;;;;5033869;28;20068;-78
2021/03/02 01:01:43;;;;;;;60.60;19.25;;;;;;;;;;5033082;28;20080;-78
2021/03/02 01:04:09;;;;;;;70.57;20.50;;;;;;;;;;5033372;28;20044;-78
2021/03/02 01:06:36;;;;;;;64.47;20.40;;;;;;;;;;5032321;28;20102;-78
2021/03/02 01:09:04;;;;;;;53.72;19.15;;;;;;;;;;5032824;28;20097;-78
2021/03/02 01:11:31;;;;;;;51.88;18.65;;;;;;;;;;5033199;28;20102;-78
2021/03/02 01:14:04;;;;;;;60.47;19.10;;;;;;;;;;5050867;28;20102;-78
2021/03/02 01:16:33;;;;;;;53.40;17.90;;;;;;;;;;5033118;28;20065;-78
2021/03/02 01:19:00;;;;;;;72.82;21.33;;;;;;;;;;5032767;28;20045;-77
2021/03/02 01:21:26;;;;;;;74.32;20.55;;;;;;;;;;5032949;28;20080;-78
2021/03/02 01:23:53;;;;;;;72.45;20.20;;;;;;;;;;5032166;28;20048;-77
2021/03/02 01:26:19;;;;;;;69.22;22.48;;;;;;;;;;5031905;28;20126;-78
2021/03/02 01:28:46;;;;;;;67.03;20.60;;;;;;;;;;5033511;28;20087;-78
2021/03/02 01:31:13;;;;;;;72.57;22.60;;;;;;;;;;5035190;28;20088;-80
2021/03/02 01:33:40;;;;;;;84.60;23.27;;;;;;;;;;5052795;28;20069;-80
2021/03/02 01:36:07;;;;;;;84.57;23.00;;;;;;;;;;5033329;28;20548;-80
2021/03/02 01:38:34;;;;;;;77.20;21.67;;;;;;;;;;5021524;28;20581;-80
2021/03/02 01:41:01;;;;;;;98.65;23.17;;;;;;;;;;5010529;28;20061;-80
2021/03/02 01:43:36;;;;;;;113.07;28.03;;;;;;;;;;5029076;28;20049;-80
2021/03/02 01:46:04;;;;;;;112.82;25.75;;;;;;;;;;5012515;28;20053;-80
2021/03/02 01:48:31;;;;;;;107.78;27.75;;;;;;;;;;5026962;28;20088;-79
2021/03/02 01:50:58;;;;;;;88.25;25.25;;;;;;;;;;5033557;28;20124;-80
2021/03/02 01:53:25;;;;;;;88.22;24.15;;;;;;;;;;5032623;28;20114;-80
2021/03/02 01:55:51;;;;;;;110.20;28.45;;;;;;;;;;5050467;28;20106;-80
2021/03/02 01:58:18;;;;;;;148.82;32.50;;;;;;;;;;5033333;28;20098;-80
2021/03/02 02:00:46;;;;;;;112.82;27.98;;;;;;;;;;5034201;28;20067;-79
2021/03/02 02:03:32;;;;;;;112.75;27.02;;;;;;;;;;5035566;28;20115;-77
2021/03/02 02:06:14;;;;;;;104.18;23.35;;;;;;;;;;5031381;28;20052;-77
2021/03/02 02:08:52;;;;;;;90.30;24.92;;;;;;;;;;5049839;28;20044;-77
2021/03/02 02:11:32;;;;;;;94.63;24.00;;;;;;;;;;5031452;28;20053;-78
2021/03/02 02:14:04;;;;;;;77.35;21.20;;;;;;;;;;5033494;28;20119;-78
2021/03/02 02:16:33;;;;;;;84.63;21.95;;;;;;;;;;5031456;28;20143;-78
2021/03/02 02:19:04;;;;;;;77.15;21.85;;;;;;;;;;5031326;28;20048;-78
2021/03/02 02:21:51;;;;;;;82.85;21.83;;;;;;;;;;5028850;28;20047;-78
2021/03/02 02:24:25;;;;;;;78.38;22.90;;;;;;;;;;5030371;28;20492;-78
2021/03/02 02:26:52;;;;;;;76.00;24.33;;;;;;;;;;5048859;28;20088;-77
2021/03/02 02:29:21;;;;;;;78.50;22.40;;;;;;;;;;5030812;28;20049;-78
2021/03/02 02:31:47;;;;;;;71.90;22.40;;;;;;;;;;5031251;28;20092;-77
2021/03/02 02:34:17;;;;;;;84.00;22.08;;;;;;;;;;5048187;28;20049;-78
2021/03/02 02:36:54;;;;;;;82.38;21.75;;;;;;;;;;5029250;28;20045;-77
2021/03/02 02:39:23;;;;;;;78.22;21.23;;;;;;;;;;5042977;28;20052;-77
2021/03/02 02:41:50;;;;;;;91.97;23.58;;;;;;;;;;5031297;28;20049;-78
2021/03/02 02:44:23;;;;;;;82.22;22.90;;;;;;;;;;5031285;28;20063;-78
2021/03/02 02:46:55;;;;;;;79.45;22.50;;;;;;;;;;5048616;28;20052;-78
2021/03/02 02:49:22;;;;;;;79.68;22.02;;;;;;;;;;5048250;28;20049;-78
2021/03/02 02:51:49;;;;;;;81.85;24.80;;;;;;;;;;5030854;28;20136;-78
2021/03/02 02:54:17;;;;;;;95.07;24.35;;;;;;;;;;5048908;28;20076;-77
2021/03/02 02:56:45;;;;;;;97.43;26.40;;;;;;;;;;5032881;28;20068;-78
2021/03/02 02:59:21;;;;;;;91.80;24.58;;;;;;;;;;5035531;28;20069;-77
2021/03/02 03:01:53;;;;;;;101.22;27.10;;;;;;;;;;5035119;28;20128;-77
2021/03/02 03:04:22;;;;;;;87.75;24.75;;;;;;;;;;5035381;28;20099;-77
2021/03/02 03:06:51;;;;;;;78.53;22.90;;;;;;;;;;5052405;28;20045;-78
2021/03/02 03:09:18;;;;;;;78.97;22.45;;;;;;;;;;5053399;28;20571;-78
2021/03/02 03:11:47;;;;;;;77.47;23.25;;;;;;;;;;5035606;28;20426;-76
2021/03/02 03:14:14;;;;;;;90.55;24.40;;;;;;;;;;5052556;28;20084;-77
2021/03/02 03:16:42;;;;;;;77.88;24.52;;;;;;;;;;5049854;28;20091;-77
2021/03/02 03:19:13;;;;;;;97.85;25.00;;;;;;;;;;5030829;28;20049;-76
2021/03/02 03:21:40;;;;;;;89.72;25.52;;;;;;;;;;5030421;28;20049;-77
2021/03/02 03:24:08;;;;;;;89.88;23.90;;;;;;;;;;5030966;28;20464;-77
2021/03/02 03:26:35;;;;;;;114.00;25.60;;;;;;;;;;5033767;28;20085;-77
2021/03/02 03:29:02;;;;;;;85.18;24.58;;;;;;;;;;5033721;28;20168;-77
2021/03/02 03:31:29;;;;;;;112.50;26.38;;;;;;;;;;5052932;28;20118;-77
2021/03/02 03:33:58;;;;;;;88.05;25.55;;;;;;;;;;5035281;28;20110;-77
2021/03/02 03:36:26;;;;;;;104.55;28.48;;;;;;;;;;5034925;28;20094;-77
2021/03/02 03:38:53;;;;;;;129.63;31.13;;;;;;;;;;5034147;28;20055;-77
2021/03/02 03:41:20;;;;;;;133.15;30.73;;;;;;;;;;5051496;28;20076;-77
2021/03/02 03:43:46;;;;;;;107.05;29.73;;;;;;;;;;5050637;28;20169;-77
2021/03/02 03:46:13;;;;;;;115.30;29.63;;;;;;;;;;5027612;28;20118;-77
2021/03/02 03:48:40;;;;;;;111.32;29.35;;;;;;;;;;5033791;28;20056;-77
2021/03/02 03:51:07;;;;;;;114.65;28.65;;;;;;;;;;5032456;28;20140;-77
2021/03/02 03:53:35;;;;;;;97.38;24.80;;;;;;;;;;5048998;28;20045;-77
2021/03/02 03:56:03;;;;;;;87.30;25.00;;;;;;;;;;5031285;28;20504;-77
2021/03/02 03:58:30;;;;;;;97.45;26.10;;;;;;;;;;5033977;28;20044;-77
2021/03/02 04:00:59;;;;;;;84.47;23.83;;;;;;;;;;5024109;28;20072;-77
2021/03/02 04:03:29;;;;;;;91.78;26.60;;;;;;;;;;5033473;28;20454;-76
2021/03/02 04:05:58;;;;;;;89.88;26.85;;;;;;;;;;5051600;28;20077;-77
2021/03/02 04:08:26;;;;;;;90.03;23.85;;;;;;;;;;5032309;28;20454;-76
2021/03/02 04:10:53;;;;;;;104.55;28.77;;;;;;;;;;5051619;28;20103;-76
2021/03/02 04:13:19;;;;;;;123.13;31.95;;;;;;;;;;5051097;28;20080;-76
2021/03/02 04:15:46;;;;;;;112.68;30.45;;;;;;;;;;5033742;28;20477;-76
2021/03/02 04:18:15;;;;;;;177.35;43.05;;;;;;;;;;5033787;28;20044;-76
2021/03/02 04:20:42;;;;;;;107.85;28.33;;;;;;;;;;5050986;28;20041;-77
2021/03/02 04:23:12;;;;;;;113.13;31.00;;;;;;;;;;5032878;28;20040;-76
2021/03/02 04:25:39;;;;;;;111.45;29.10;;;;;;;;;;5032969;28;20041;-76
2021/03/02 04:28:06;;;;;;;98.20;25.65;;;;;;;;;;5050830;28;20045;-76
2021/03/02 04:30:36;;;;;;;99.32;29.40;;;;;;;;;;5050384;28;20069;-76
2021/03/02 04:33:03;;;;;;;111.50;27.98;;;;;;;;;;5047047;28;20045;-76
2021/03/02 04:35:30;;;;;;;104.18;27.77;;;;;;;;;;5032036;28;20124;-76
2021/03/02 04:37:57;;;;;;;110.63;27.92;;;;;;;;;;5050340;28;20080;-76
2021/03/02 04:40:23;;;;;;;129.43;31.95;;;;;;;;;;5050574;28;20045;-76
2021/03/02 04:42:50;;;;;;;105.43;27.90;;;;;;;;;;5032032;28;20099;-76
2021/03/02 04:45:17;;;;;;;93.07;26.73;;;;;;;;;;5049423;28;20110;-76
2021/03/02 04:47:45;;;;;;;108.20;27.77;;;;;;;;;;5049570;28;20053;-76
2021/03/02 04:50:13;;;;;;;104.53;27.80;;;;;;;;;;5031497;28;20049;-76
2021/03/02 04:52:39;;;;;;;102.18;27.90;;;;;;;;;;5049873;28;20087;-77
2021/03/02 04:55:07;;;;;;;105.00;27.65;;;;;;;;;;5033125;28;20444;-77
2021/03/02 04:57:34;;;;;;;91.65;26.35;;;;;;;;;;5034065;28;20132;-77
2021/03/02 05:00:01;;;;;;;94.30;24.15;;;;;;;;;;5046581;28;20053;-77
2021/03/02 05:02:28;;;;;;;116.03;27.80;;;;;;;;;;5032224;28;20083;-76
2021/03/02 05:04:55;;;;;;;94.60;23.83;;;;;;;;;;5032506;28;20052;-77
2021/03/02 05:07:21;;;;;;;97.18;26.17;;;;;;;;;;5032749;28;20140;-76
2021/03/02 05:09:48;;;;;;;99.43;24.92;;;;;;;;;;5032689;28;20081;-77
2021/03/02 05:12:15;;;;;;;100.20;27.85;;;;;;;;;;5049303;28;20128;-77
2021/03/02 05:14:41;;;;;;;102.10;29.15;;;;;;;;;;5048929;28;20049;-77
2021/03/02 05:17:08;;;;;;;107.15;27.23;;;;;;;;;;5031859;28;20084;-76
2021/03/02 05:19:36;;;;;;;110.72;27.15;;;;;;;;;;5049786;28;20425;-77
2021/03/02 05:22:03;;;;;;;114.10;28.02;;;;;;;;;;5031910;28;20037;-76
2021/03/02 05:24:30;;;;;;;121.57;27.48;;;;;;;;;;5047983;28;20075;-76
2021/03/02 05:26:56;;;;;;;109.05;27.63;;;;;;;;;;5050223;28;20140;-76
2021/03/02 05:29:23;;;;;;;101.55;25.75;;;;;;;;;;5031552;28;20057;-76
2021/03/02 05:31:50;;;;;;;118.00;29.75;;;;;;;;;;5048566;28;20728;-76
2021/03/02 05:34:17;;;;;;;136.82;31.27;;;;;;;;;;5032005;28;20551;-76
2021/03/02 05:36:44;;;;;;;119.80;31.80;;;;;;;;;;5028912;28;20052;-77
2021/03/02 05:39:10;;;;;;;121.93;31.30;;;;;;;;;;5032203;28;20124;-77
2021/03/02 05:41:37;;;;;;;119.57;30.80;;;;;;;;;;5031210;28;20132;-77
2021/03/02 05:44:04;;;;;;;120.90;30.55;;;;;;;;;;5031354;28;20080;-77
2021/03/02 05:46:33;;;;;;;117.50;28.98;;;;;;;;;;5040760;28;20069;-77
2021/03/02 05:49:00;;;;;;;129.57;31.65;;;;;;;;;;5030785;28;20048;-77
2021/03/02 05:51:27;;;;;;;147.15;38.08;;;;;;;;;;5028829;28;20057;-78
2021/03/02 05:53:54;;;;;;;165.93;48.08;;;;;;;;;;5029396;28;20166;-78
2021/03/02 05:56:22;;;;;;;230.23;65.20;;;;;;;;;;5030491;28;20048;-77
2021/03/02 05:58:51;;;;;;;176.02;46.85;;;;;;;;;;5031230;28;20049;-78
2021/03/02 06:01:18;;;;;;;169.20;47.00;;;;;;;;;;5048061;28;20053;-78
2021/03/02 06:03:45;;;;;;;174.52;49.90;;;;;;;;;;5031393;28;20489;-78
2021/03/02 06:06:14;;;;;;;150.15;41.13;;;;;;;;;;5045873;28;20079;-78
2021/03/02 06:08:44;;;;;;;149.40;41.08;;;;;;;;;;5032024;28;20386;-76
2021/03/02 06:11:29;;;;;;;162.13;44.88;;;;;;;;;;5032644;28;20061;-77
2021/03/02 06:13:56;;;;;;;158.80;44.80;;;;;;;;;;5029855;28;20046;-78
2021/03/02 06:16:23;;;;;;;135.35;37.10;;;;;;;;;;5010566;28;20136;-76
2021/03/02 06:18:53;;;;;;;113.70;30.55;;;;;;;;;;5047648;28;20049;-77
2021/03/02 06:21:21;;;;;;;103.75;28.20;;;;;;;;;;5046938;28;20099;-76
2021/03/02 06:23:54;;;;;;;99.82;29.98;;;;;;;;;;5026085;28;20124;-77
2021/03/02 06:26:25;;;;;;;101.18;28.45;;;;;;;;;;5026350;28;20133;-78
2021/03/02 06:28:52;;;;;;;110.70;31.02;;;;;;;;;;5028628;28;20080;-78
2021/03/02 06:31:38;;;;;;;133.35;33.40;;;;;;;;;;5047673;28;20567;-78
2021/03/02 06:34:26;;;;;;;141.82;35.08;;;;;;;;;;5050588;28;20115;-78
2021/03/02 06:36:55;;;;;;;143.10;33.30;;;;;;;;;;5051359;28;20136;-78
2021/03/02 06:39:23;;;;;;;188.45;37.05;;;;;;;;;;5045594;28;20516;-79
2021/03/02 06:41:51;;;;;;;144.88;36.35;;;;;;;;;;5028514;28;20073;-81
2021/03/02 06:44:17;;;;;;;191.65;36.50;;;;;;;;;;5039061;28;20048;-79
2021/03/02 06:46:44;;;;;;;224.40;37.80;;;;;;;;;;5051888;28;20401;-79
2021/03/02 06:49:11;;;;;;;234.80;39.78;;;;;;;;;;5052628;28;20601;-78
2021/03/02 06:51:38;;;;;;;208.10;39.50;;;;;;;;;;5050916;28;20118;-79
2021/03/02 06:54:17;;;;;;;296.30;40.40;;;;;;;;;;5035349;28;20053;-78
2021/03/02 06:56:44;;;;;;;368.63;42.67;;;;;;;;;;5031516;28;20081;-79
2021/03/02 06:59:18;;;;;;;306.02;39.67;;;;;;;;;;5033034;28;20143;-78
2021/03/02 07:01:48;;;;;;;236.48;37.17;;;;;;;;;;5044824;28;20583;-79
2021/03/02 07:04:18;;;;;;;310.50;40.97;;;;;;;;;;5052614;28;20056;-79
2021/03/02 07:06:54;;;;;;;438.92;42.92;;;;;;;;;;5035369;28;20056;-78
2021/03/02 07:09:22;;;;;;;296.40;37.58;;;;;;;;;;5035326;28;20420;-78
2021/03/02 07:11:48;;;;;;;484.65;43.45;;;;;;;;;;5034694;28;20136;-78
2021/03/02 07:14:16;;;;;;;429.30;40.13;;;;;;;;;;5052546;28;20087;-79
2021/03/02 07:16:43;;;;;;;667.40;50.45;;;;;;;;;;5052234;28;20069;-79
2021/03/02 07:19:15;;;;;;;450.33;41.28;;;;;;;;;;5035462;28;20140;-78
2021/03/02 07:21:44;;;;;;;679.67;51.25;;;;;;;;;;5052671;28;20225;-79
2021/03/02 07:24:12;;;;;;;506.75;40.92;;;;;;;;;;5052174;28;20137;-78
2021/03/02 07:26:44;;;;;;;720.90;48.58;;;;;;;;;;5052045;28;20084;-79
2021/03/02 07:29:11;;;;;;;661.78;47.78;;;;;;;;;;5034992;28;20056;-79
2021/03/02 07:31:38;;;;;;;379.27;36.70;;;;;;;;;;5052196;28;20084;-79
2021/03/02 07:34:06;;;;;;;543.25;43.78;;;;;;;;;;5052348;28;20151;-79
2021/03/02 07:36:43;;;;;;;499.50;42.22;;;;;;;;;;5051634;28;20045;-78
2021/03/02 07:39:11;;;;;;;445.65;40.45;;;;;;;;;;5027115;28;20099;-79
2021/03/02 07:41:39;;;;;;;606.13;43.42;;;;;;;;;;5052522;28;20069;-78
2021/03/02 07:44:06;;;;;;;533.20;37.30;;;;;;;;;;5052079;28;20048;-78
2021/03/02 07:46:41;;;;;;;329.92;31.73;;;;;;;;;;5052350;28;20106;-78
2021/03/02 07:49:29;;;;;;;356.90;33.97;;;;;;;;;;5050707;28;20455;-79
2021/03/02 07:51:58;;;;;;;225.85;30.08;;;;;;;;;;5050704;28;20132;-78
2021/03/02 07:54:25;;;;;;;211.32;30.33;;;;;;;;;;5043044;28;20127;-78
2021/03/02 07:57:12;;;;;;;270.90;30.58;;;;;;;;;;5033724;28;20128;-78
2021/03/02 07:59:39;;;;;;;327.27;34.42;;;;;;;;;;5051239;28;20045;-78
2021/03/02 08:02:19;;;;;;;342.13;32.30;;;;;;;;;;5033626;28;20069;-79
2021/03/02 08:04:47;;;;;;;230.82;29.48;;;;;;;;;;5051243;28;20037;-78
2021/03/02 08:07:32;;;;;;;321.08;33.65;;;;;;;;;;5051165;28;20132;-79
2021/03/02 08:09:59;;;;;;;271.27;31.07;;;;;;;;;;5030166;28;20049;-78
2021/03/02 08:12:25;;;;;;;372.70;34.53;;;;;;;;;;5031550;28;20128;-78
2021/03/02 08:14:53;;;;;;;259.67;29.42;;;;;;;;;;5040110;28;20063;-78
2021/03/02 08:17:21;;;;;;;225.95;33.08;;;;;;;;;;5048685;28;20107;-78
2021/03/02 08:19:49;;;;;;;330.25;39.13;;;;;;;;;;5050647;28;20052;-78
2021/03/02 08:22:18;;;;;;;219.27;31.52;;;;;;;;;;5049125;28;20456;-78
2021/03/02 08:24:51;;;;;;;214.65;32.50;;;;;;;;;;5047233;28;20096;-78
2021/03/02 08:27:35;;;;;;;361.23;35.15;;;;;;;;;;5031100;28;20473;-78
2021/03/02 08:30:24;;;;;;;362.70;36.00;;;;;;;;;;5030617;28;20143;-78
2021/03/02 08:32:51;;;;;;;234.75;29.65;;;;;;;;;;5035673;28;20494;-79
2021/03/02 08:35:20;;;;;;;289.75;33.30;;;;;;;;;;5050413;28;20068;-78
2021/03/02 08:37:50;;;;;;;172.27;30.48;;;;;;;;;;5031642;28;20075;-78
2021/03/02 08:40:19;;;;;;;153.98;32.60;;;;;;;;;;5030595;28;20597;-79
2021/03/02 08:43:03;;;;;;;174.38;31.20;;;;;;;;;;5032298;28;20111;-78
2021/03/02 08:45:31;;;;;;;213.60;32.83;;;;;;;;;;5050088;28;20076;-79
2021/03/02 08:48:16;;;;;;;147.05;29.02;;;;;;;;;;5050870;28;20107;-78
2021/03/02 08:50:43;;;;;;;;;;;;;;;;;;5049832;28;20437;-78
2021/03/02 08:53:38;;;;;;;167.40;28.92;;;;;;;;;;5049348;28;20435;-78
2021/03/02 08:56:07;;;;;;;160.23;30.13;;;;;;;;;;5039699;28;20055;-78
2021/03/02 08:58:35;;;;;;;169.73;29.90;;;;;;;;;;5032067;28;20662;-78
2021/03/02 09:01:08;;;;;;;286.85;36.42;;;;;;;;;;5028967;28;20046;-78
2021/03/02 09:03:35;;;;;;;235.63;34.50;;;;;;;;;;5031709;28;20231;-78
2021/03/02 09:06:12;;;;;;;195.57;31.63;;;;;;;;;;5049956;28;20041;-78
2021/03/02 09:08:42;;;;;;;280.08;36.22;;;;;;;;;;5028966;28;20049;-78
2021/03/02 09:11:10;;;;;;;170.52;34.95;;;;;;;;;;5030250;28;20042;-78
2021/03/02 09:13:37;;;;;;;129.48;30.67;;;;;;;;;;5028403;28;20140;-78
2021/03/02 09:16:23;;;;;;;156.95;30.08;;;;;;;;;;5029627;28;20882;-78
2021/03/02 09:19:07;;;;;;;155.73;31.13;;;;;;;;;;5029977;28;20141;-79
2021/03/02 09:21:35;;;;;;;238.93;34.80;;;;;;;;;;5028726;28;20057;-79
2021/03/02 09:24:03;;;;;;;163.65;32.67;;;;;;;;;;5042419;28;20049;-79
2021/03/02 09:26:30;;;;;;;151.70;32.28;;;;;;;;;;5032431;28;20056;-79
2021/03/02 09:29:01;;;;;;;96.82;30.98;;;;;;;;;;5050411;28;20087;-78
2021/03/02 09:31:28;;;;;;;326.67;38.20;;;;;;;;;;5049651;28;20163;-79
2021/03/02 09:33:55;;;;;;;287.55;34.58;;;;;;;;;;5049408;28;20060;-79
2021/03/02 09:36:27;;;;;;;140.50;29.80;;;;;;;;;;5032250;28;20041;-79
2021/03/02 09:38:54;;;;;;;314.77;32.80;;;;;;;;;;5032589;28;20075;-78
2021/03/02 09:41:34;;;;;;;200.80;34.03;;;;;;;;;;5031836;28;20552;-79
2021/03/02 09:44:16;;;;;;;337.48;36.67;;;;;;;;;;5049550;28;20492;-79
2021/03/02 09:46:44;;;;;;;102.28;28.95;;;;;;;;;;5049543;28;20655;-79
2021/03/02 09:49:38;;;;;;;237.55;33.67;;;;;;;;;;5048164;28;20080;-79
2021/03/02 09:52:06;;;;;;;152.18;30.88;;;;;;;;;;5049225;28;20492;-78
2021/03/02 09:54:33;;;;;;;146.05;29.55;;;;;;;;;;5045761;28;20055;-79
2021/03/02 09:57:04;;;;;;;97.53;33.08;;;;;;;;;;5029610;28;20522;-78
2021/03/02 09:59:31;;;;;;;167.75;32.83;;;;;;;;;;5031754;28;20045;-79
2021/03/02 10:01:58;;;;;;;191.40;30.20;;;;;;;;;;5030877;28;20103;-79
2021/03/02 10:04:26;;;;;;;106.70;29.58;;;;;;;;;;5049224;28;20041;-79
2021/03/02 10:07:09;;;;;;;82.95;30.65;;;;;;;;;;5031718;28;20110;-79
2021/03/02 10:09:35;;;;;;;86.60;30.92;;;;;;;;;;5031831;28;20488;-80
2021/03/02 10:12:09;;;;;;;103.82;30.70;;;;;;;;;;5048872;28;20573;-79
2021/03/02 10:14:40;;;;;;;93.82;29.27;;;;;;;;;;5049313;28;20098;-79
2021/03/02 10:17:07;;;;;;;88.88;30.63;;;;;;;;;;5031241;28;20135;-79
2021/03/02 10:19:44;;;;;;;82.03;31.40;;;;;;;;;;5049095;28;20049;-79
2021/03/02 10:22:12;;;;;;;94.43;29.25;;;;;;;;;;5031556;28;20049;-79
2021/03/02 10:24:40;;;;;;;156.43;30.58;;;;;;;;;;5041028;28;20128;-79
2021/03/02 10:27:14;;;;;;;84.50;28.85;;;;;;;;;;5043341;28;20140;-79
2021/03/02 10:29:41;;;;;;;97.95;31.50;;;;;;;;;;5028761;28;20057;-79
2021/03/02 10:32:08;;;;;;;85.38;31.23;;;;;;;;;;5029157;28;20057;-79
2021/03/02 10:34:37;;;;;;;102.03;29.17;;;;;;;;;;5030552;28;20048;-79
2021/03/02 10:37:05;;;;;;;67.50;29.15;;;;;;;;;;5046756;28;20695;-79
2021/03/02 10:39:32;;;;;;;133.05;31.73;;;;;;;;;;5030689;28;20110;-79
2021/03/02 10:42:01;;;;;;;121.65;30.17;;;;;;;;;;5047608;28;20092;-79
2021/03/02 10:44:28;;;;;;;65.70;28.20;;;;;;;;;;5029472;28;20141;-79
2021/03/02 10:46:55;;;;;;;76.80;30.67;;;;;;;;;;5047776;28;20049;-79
2021/03/02 10:49:23;;;;;;;72.28;28.95;;;;;;;;;;5047395;28;20045;-78
2021/03/02 10:51:53;;;;;;;93.25;29.88;;;;;;;;;;5045818;28;20421;-78
2021/03/02 10:54:20;;;;;;;74.53;29.00;;;;;;;;;;5044870;28;20049;-77
2021/03/02 10:56:46;;;;;;;87.22;29.63;;;;;;;;;;5046711;28;20045;-79
2021/03/02 10:59:13;;;;;;;123.10;31.45;;;;;;;;;;5047793;28;20128;-79
2021/03/02 11:01:42;;;;;;;64.53;29.67;;;;;;;;;;5030739;28;20087;-79
2021/03/02 11:04:10;;;;;;;78.10;30.17;;;;;;;;;;5030361;28;20137;-79
2021/03/02 11:06:36;;;;;;;68.80;29.40;;;;;;;;;;5046729;28;20045;-79
2021/03/02 11:09:05;;;;;;;71.85;28.65;;;;;;;;;;5031103;28;20049;-80
2021/03/02 11:11:32;;;;;;;58.53;28.70;;;;;;;;;;5048589;28;20105;-77
2021/03/02 11:13:58;;;;;;;89.13;28.85;;;;;;;;;;5028973;28;20048;-78
2021/03/02 11:16:25;;;;;;;61.60;27.52;;;;;;;;;;5045435;28;20053;-77
2021/03/02 11:18:54;;;;;;;61.67;28.77;;;;;;;;;;5048538;28;20057;-77
2021/03/02 11:21:21;;;;;;;71.38;27.05;;;;;;;;;;5049106;28;20581;-79
2021/03/02 11:23:48;;;;;;;66.10;27.92;;;;;;;;;;5036768;28;20092;-79
2021/03/02 11:26:14;;;;;;;60.55;27.67;;;;;;;;;;5027722;28;20644;-80
2021/03/02 11:28:41;;;;;;;67.82;27.40;;;;;;;;;;5010372;28;20061;-79
2021/03/02 11:31:08;;;;;;;60.25;27.05;;;;;;;;;;5010616;28;20080;-78
2021/03/02 11:33:34;;;;;;;50.20;25.02;;;;;;;;;;5016218;28;717079;-79
2021/03/02 11:36:02;;;;;;;58.40;26.38;;;;;;;;;;5051122;28;20513;-79
2021/03/02 11:38:28;;;;;;;53.38;26.15;;;;;;;;;;5043919;28;20133;-79
2021/03/02 11:40:58;;;;;;;57.63;26.55;;;;;;;;;;5030877;28;20052;-79
2021/03/02 11:43:25;;;;;;;68.40;26.13;;;;;;;;;;5031795;28;20141;-79
2021/03/02 11:45:52;;;;;;;54.63;26.58;;;;;;;;;;5051122;28;20144;-79
2021/03/02 11:48:19;;;;;;;46.92;24.48;;;;;;;;;;5050108;28;20494;-79
2021/03/02 11:50:56;;;;;;;49.30;24.85;;;;;;;;;;5148726;22;20080;-79
2021/03/02 11:53:22;;;;;;;56.60;26.30;;;;;;;;;;5069131;28;20040;-79
2021/03/02 11:55:49;;;;;;;47.15;24.60;;;;;;;;;;5068687;28;20067;-79
2021/03/02 11:58:16;;;;;;;50.58;26.35;;;;;;;;;;5089999;28;20155;-79
2021/03/02 12:00:43;;;;;;;53.55;26.95;;;;;;;;;;5077222;28;20072;-79
2021/03/02 12:03:22;;;;;;;67.90;28.90;;;;;;;;;;5069757;28;20086;-78
2021/03/02 12:05:50;;;;;;;59.08;27.30;;;;;;;;;;5069548;28;20044;-79
2021/03/02 12:08:19;;;;;;;57.13;27.48;;;;;;;;;;5062982;28;20478;-79
2021/03/02 12:10:45;;;;;;;53.65;26.10;;;;;;;;;;5042008;28;20778;-79
2021/03/02 12:13:13;;;;;;;46.58;26.00;;;;;;;;;;5053000;28;20899;-79
2021/03/02 12:15:41;;;;;;;55.20;27.45;;;;;;;;;;5071100;28;20044;-80
2021/03/02 12:18:08;;;;;;;62.55;29.60;;;;;;;;;;5070177;28;20137;-78
2021/03/02 12:20:35;;;;;;;64.72;29.77;;;;;;;;;;5053699;28;20091;-78
2021/03/02 12:23:01;;;;;;;63.20;30.83;;;;;;;;;;5069698;28;20044;-80
2021/03/02 12:25:28;;;;;;;73.00;31.77;;;;;;;;;;5069816;28;20049;-80
2021/03/02 12:27:56;;;;;;;62.58;30.83;;;;;;;;;;5068809;28;20053;-80
2021/03/02 12:30:23;;;;;;;57.60;27.13;;;;;;;;;;5068682;28;20073;-80
2021/03/02 12:32:50;;;;;;;51.10;26.20;;;;;;;;;;5069089;28;20117;-80
2021/03/02 12:35:17;;;;;;;49.25;24.75;;;;;;;;;;5069149;28;20052;-80
2021/03/02 12:37:44;;;;;;;46.00;24.52;;;;;;;;;;5069118;28;20083;-80
2021/03/02 12:40:14;;;;;;;46.92;24.40;;;;;;;;;;5050854;28;20478;-80
2021/03/02 12:42:40;;;;;;;52.45;23.65;;;;;;;;;;5031701;28;20033;-80
2021/03/02 12:45:08;;;;;;;45.25;24.67;;;;;;;;;;5050328;28;20045;-79
2021/03/02 12:47:34;;;;;;;44.67;23.63;;;;;;;;;;5051068;28;20140;-80
2021/03/02 12:50:07;;;;;;;43.00;23.05;;;;;;;;;;5069234;28;20078;-80
2021/03/02 12:52:34;;;;;;;40.05;22.63;;;;;;;;;;5068706;28;20056;-80
2021/03/02 12:55:01;;;;;;;44.50;22.58;;;;;;;;;;5051534;28;20147;-80
2021/03/02 12:57:28;;;;;;;47.45;22.88;;;;;;;;;;5068887;28;20160;-80
2021/03/02 12:59:55;;;;;;;40.45;21.95;;;;;;;;;;5068031;28;20048;-80
2021/03/02 13:02:22;;;;;;;39.20;22.17;;;;;;;;;;5068343;28;20048;-80
2021/03/02 13:04:50;;;;;;;42.05;21.23;;;;;;;;;;5069716;28;20045;-80
2021/03/02 13:07:18;;;;;;;48.38;21.85;;;;;;;;;;5069249;28;20143;-80
2021/03/02 13:09:45;;;;;;;39.08;22.48;;;;;;;;;;5068255;28;20064;-80
2021/03/02 13:12:12;;;;;;;40.58;21.10;;;;;;;;;;5069599;28;20558;-80
2021/03/02 13:14:40;;;;;;;38.58;21.58;;;;;;;;;;5068834;28;20564;-78
2021/03/02 13:17:08;;;;;;;36.55;21.00;;;;;;;;;;5067967;28;20040;-78
2021/03/02 13:19:35;;;;;;;36.42;21.20;;;;;;;;;;5069560;28;20122;-78
2021/03/02 13:22:04;;;;;;;37.50;22.17;;;;;;;;;;5051259;28;20053;-80
2021/03/02 13:24:31;;;;;;;40.80;22.33;;;;;;;;;;5068443;28;20404;-80
2021/03/02 13:26:58;;;;;;;42.30;22.25;;;;;;;;;;5068566;28;20139;-80
2021/03/02 13:29:26;;;;;;;46.95;25.10;;;;;;;;;;5069862;28;20056;-80
2021/03/02 13:31:53;;;;;;;37.40;21.40;;;;;;;;;;5068091;28;20143;-78
2021/03/02 13:34:21;;;;;;;35.13;20.85;;;;;;;;;;5067574;28;20083;-81
2021/03/02 13:36:49;;;;;;;30.98;19.67;;;;;;;;;;5066712;28;20049;-81
2021/03/02 13:39:21;;;;;;;33.78;20.17;;;;;;;;;;5045157;28;20056;-82
2021/03/02 13:41:49;;;;;;;38.78;21.55;;;;;;;;;;5069399;28;20496;-82
2021/03/02 13:44:17;;;;;;;41.08;21.35;;;;;;;;;;5068184;28;20095;-81
2021/03/02 13:46:47;;;;;;;35.47;19.58;;;;;;;;;;5049472;28;20080;-79
2021/03/02 13:49:24;;;;;;;32.85;19.92;;;;;;;;;;5049059;28;20084;-79
2021/03/02 13:51:50;;;;;;;34.92;20.17;;;;;;;;;;5048017;28;20113;-79
2021/03/02 13:54:17;;;;;;;37.33;19.75;;;;;;;;;;5065384;28;20101;-79
2021/03/02 13:56:44;;;;;;;27.77;18.05;;;;;;;;;;5069631;28;20059;-81
2021/03/02 13:59:11;;;;;;;45.78;20.58;;;;;;;;;;5068262;28;20473;-81
2021/03/02 14:01:38;;;;;;;33.05;18.65;;;;;;;;;;5069546;28;20153;-81
2021/03/02 14:04:06;;;;;;;26.55;17.70;;;;;;;;;;5068958;28;20055;-81
2021/03/02 14:06:40;;;;;;;27.30;18.58;;;;;;;;;;5066829;28;20813;-80
2021/03/02 14:09:07;;;;;;;31.77;19.30;;;;;;;;;;5061302;28;20079;-81
2021/03/02 14:11:37;;;;;;;30.08;18.38;;;;;;;;;;5067755;28;20155;-80
2021/03/02 14:14:08;;;;;;;35.55;19.02;;;;;;;;;;5068665;28;20139;-79
2021/03/02 14:16:36;;;;;;;30.35;17.83;;;;;;;;;;5066853;28;20048;-80
2021/03/02 14:19:07;;;;;;;34.95;19.65;;;;;;;;;;5055183;28;20058;-79
2021/03/02 14:21:35;;;;;;;39.72;19.52;;;;;;;;;;5048263;28;20486;-79